Sunday, July 22, 2018, 4:10 PM GMT
Back to Local

CWIG, Ile Aux Grues, Que.

Location: , , Canada Lat: 47.067
Local Time: 4:10 PM GMT (16:10 GMT) Lon: -70.533
Time Zone: GMT Elev: 59 ft

Show me the last for .
Show Coded

Time T Td Feel RH Dir Speed Gust Alt SLP Vis Weather Sky Remarks
2018-07-22 15:00 - - - 0 40° 13 - - - 0 None
2018-07-22 14:00 - - - 0 30° 12 - - - 0 None
2018-07-22 13:00 - - - 0 30° 10 - - - 0 None
2018-07-22 12:00 - - - 0 40° 10 - - - 0 None
2018-07-22 11:00 - - - 0 30° 7 - - - 0 None
2018-07-22 10:00 - - - 0 30° 6 - - - 0 None
2018-07-22 09:00 - - - 0 30° 5 - - - 0 None
2018-07-22 08:00 - - - 0 10° 5 - - - 0 None
2018-07-22 07:00 - - - 0 20° 5 - - - 0 None
2018-07-22 06:00 - - - 0 20° 5 - - - 0 None
2018-07-22 05:00 - - - 0 50° 3 - - - 0 None
2018-07-22 04:00 - - - 0 30° 6 - - - 0 None
2018-07-22 03:00 - - - 0 20° 5 - - - 0 None
2018-07-22 02:00 - - - 0 10° 7 - - - 0 None
2018-07-22 01:00 - - - 0 340° 5 - - - 0 None
2018-07-22 00:00 - - - 0 10° 8 - - - 0 None
2018-07-21 23:00 - - - 0 360° 7 - - - 0 None
2018-07-21 22:00 - - - 0 40° 8 - - - 0 None
2018-07-21 21:00 - - - 0 30° 5 - - - 0 None
2018-07-21 20:00 - - - 0 360° 6 - - - 0 None
2018-07-21 19:00 - - - 0 330° 5 - - - 0 None
2018-07-21 18:00 - - - 0 320° 5 - - - 0 None
2018-07-21 17:00 - - - 0 340° 5 - - - 0 None

Support USWX by starting your Amazon purchase here.